Time;durP1;ratioP1;P1;durP2;ratioP2;P2;SDS_P1;SDS_P2;PMS_P1;PMS_P2;Temp;Humidity;BMP_temperature;BMP_pressure;BME280_temperature;BME280_humidity;BME280_pressure;Samples;Min_cycle;Max_cycle;Signal;HPM_P1;HPM_P2
2023/11/27 00:00:25;;;;;;;40.77;36.17;;;3.30;94.70;;;;;;5096295;28;20178;-83
2023/11/27 00:02:52;;;;;;;50.23;36.83;;;3.30;94.70;;;;;;5095879;28;20581;-83
2023/11/27 00:05:17;;;;;;;43.47;34.90;;;3.30;94.70;;;;;;5095847;28;20173;-84
2023/11/27 00:07:43;;;;;;;43.23;35.60;;;3.30;94.70;;;;;;5095572;28;20205;-83
2023/11/27 00:10:09;;;;;;;48.43;36.97;;;3.30;94.70;;;;;;5095819;28;20174;-84
2023/11/27 00:12:34;;;;;;;47.97;34.97;;;3.30;94.70;;;;;;5095446;28;20654;-84
2023/11/27 00:15:00;;;;;;;45.37;36.43;;;3.30;94.70;;;;;;5077565;28;20178;-84
2023/11/27 00:17:25;;;;;;;41.13;35.07;;;3.30;94.70;;;;;;5095405;28;20186;-84
2023/11/27 00:19:51;;;;;;;43.77;36.53;;;3.30;94.70;;;;;;5095853;28;20667;-83
2023/11/27 00:22:16;;;;;;;41.30;33.47;;;3.30;94.70;;;;;;5095450;28;20723;-84
2023/11/27 00:24:42;;;;;;;35.50;23.63;;;3.30;94.70;;;;;;5094329;28;20173;-84
2023/11/27 00:27:07;;;;;;;36.83;25.17;;;3.30;94.80;;;;;;5077113;28;20194;-84
2023/11/27 00:29:33;;;;;;;43.57;36.17;;;3.30;94.80;;;;;;5095374;28;20199;-84
2023/11/27 00:31:58;;;;;;;41.33;36.23;;;3.30;94.80;;;;;;5095418;28;20202;-84
2023/11/27 00:34:24;;;;;;;39.53;35.20;;;3.30;94.90;;;;;;5095412;28;20552;-83
2023/11/27 00:36:50;;;;;;;40.57;25.90;;;3.30;94.90;;;;;;5095059;28;20201;-84
2023/11/27 00:39:15;;;;;;;45.50;26.47;;;3.30;94.90;;;;;;5095296;28;20210;-84
2023/11/27 00:41:41;;;;;;;49.13;36.87;;;3.30;95.00;;;;;;5095246;28;20580;-83
2023/11/27 00:44:06;;;;;;;41.20;35.27;;;3.40;95.00;;;;;;5095508;28;20166;-84
2023/11/27 00:46:33;;;;;;;33.83;24.43;;;3.40;95.00;;;;;;5076923;28;20185;-84
2023/11/27 00:48:58;;;;;;;38.60;23.60;;;3.40;95.00;;;;;;5094688;28;20216;-83
2023/11/27 00:51:24;;;;;;;31.50;22.63;;;3.50;95.10;;;;;;5095176;28;20170;-83
2023/11/27 00:53:49;;;;;;;30.47;22.10;;;3.50;95.10;;;;;;5076886;28;20642;-83
2023/11/27 00:56:15;;;;;;;33.47;22.97;;;3.40;95.00;;;;;;5094710;28;20650;-83
2023/11/27 00:58:40;;;;;;;31.47;21.13;;;3.50;95.10;;;;;;5094504;28;20289;-83
2023/11/27 01:01:06;;;;;;;29.07;21.03;;;3.60;95.10;;;;;;5076569;28;20174;-84
2023/11/27 01:03:32;;;;;;;35.07;22.93;;;3.60;95.10;;;;;;5094527;28;20261;-84
2023/11/27 01:05:57;;;;;;;30.63;21.73;;;3.50;95.10;;;;;;5094404;28;20175;-84
2023/11/27 01:08:24;;;;;;;29.00;22.00;;;3.60;95.10;;;;;;5076274;28;20202;-83
2023/11/27 01:10:50;;;;;;;30.57;22.53;;;3.50;95.00;;;;;;5094483;28;20180;-83
2023/11/27 01:13:15;;;;;;;35.23;23.57;;;3.50;95.00;;;;;;5076186;28;20286;-83
2023/11/27 01:15:41;;;;;;;29.73;22.40;;;3.50;95.10;;;;;;5094294;28;20189;-83
2023/11/27 01:18:07;;;;;;;36.60;32.73;;;3.50;95.10;;;;;;5094367;28;20195;-84
2023/11/27 01:20:33;;;;;;;39.87;34.20;;;3.50;95.10;;;;;;5094176;28;20669;-84
2023/11/27 01:22:59;;;;;;;37.70;33.67;;;3.50;95.20;;;;;;5094337;28;20269;-84
2023/11/27 01:25:24;;;;;;;45.50;35.50;;;3.50;95.10;;;;;;5076039;28;20239;-83
2023/11/27 01:27:50;;;;;;;36.73;32.80;;;3.50;95.10;;;;;;5093909;28;20779;-84
2023/11/27 01:30:18;;;;;;;38.17;34.10;;;3.60;95.10;;;;;;5094067;28;20210;-84
2023/11/27 01:32:44;;;;;;;44.97;35.53;;;3.50;95.20;;;;;;5093894;28;20716;-84
2023/11/27 01:35:10;;;;;;;37.83;33.90;;;3.60;95.20;;;;;;5075765;28;20658;-84
2023/11/27 01:37:36;;;;;;;37.87;33.73;;;3.70;95.20;;;;;;5093846;28;20237;-84
2023/11/27 01:40:01;;;;;;;43.77;35.30;;;3.50;95.10;;;;;;5094151;28;20252;-84
2023/11/27 01:42:27;;;;;;;37.77;33.80;;;3.60;95.20;;;;;;5093870;28;20258;-84
2023/11/27 01:44:53;;;;;;;37.30;33.27;;;3.60;95.20;;;;;;5075899;28;20228;-84
2023/11/27 01:47:19;;;;;;;37.13;33.10;;;3.60;95.20;;;;;;5093806;28;20202;-84
2023/11/27 01:49:46;;;;;;;43.43;35.33;;;3.50;95.20;;;;;;5093764;28;20198;-84
2023/11/27 01:52:13;;;;;;;36.27;30.87;;;3.70;95.30;;;;;;5075420;28;20232;-84
2023/11/27 01:54:40;;;;;;;35.57;24.53;;;3.60;95.30;;;;;;5075598;28;20190;-84
2023/11/27 01:57:08;;;;;;;36.60;27.77;;;3.70;95.40;;;;;;5093764;28;20685;-85
2023/11/27 01:59:34;;;;;;;43.00;33.97;;;3.70;95.30;;;;;;5075414;28;20178;-84
2023/11/27 02:02:00;;;;;;;34.53;30.83;;;3.70;95.30;;;;;;5093717;28;20179;-86
2023/11/27 02:04:27;;;;;;;37.73;33.50;;;3.80;95.40;;;;;;5093741;28;20272;-84
2023/11/27 02:06:53;;;;;;;32.13;24.00;;;3.70;95.30;;;;;;5075195;28;20548;-85
2023/11/27 02:09:18;;;;;;;26.17;21.10;;;3.70;95.30;;;;;;5075583;28;20178;-85
2023/11/27 02:11:47;;;;;;;34.30;30.70;;;3.70;95.30;;;;;;5075377;28;20584;-84
2023/11/27 02:14:15;;;;;;;37.87;33.77;;;3.70;95.30;;;;;;5075289;28;20178;-85
2023/11/27 02:16:50;;;;;;;40.43;33.80;;;3.70;95.40;;;;;;5093692;28;20181;-84
2023/11/27 02:19:15;;;;;;;31.10;22.87;;;3.70;95.40;;;;;;5093676;28;20158;-84
2023/11/27 02:21:41;;;;;;;25.53;21.10;;;3.80;95.40;;;;;;5075110;28;20178;-84
2023/11/27 02:24:07;;;;;;;35.33;31.63;;;3.80;95.40;;;;;;5093338;28;20228;-84
2023/11/27 02:26:33;;;;;;;35.10;31.50;;;3.80;95.50;;;;;;5075210;28;20173;-84
2023/11/27 02:28:59;;;;;;;34.23;30.60;;;3.90;95.40;;;;;;5093198;28;20197;-85
2023/11/27 02:31:24;;;;;;;24.37;20.17;;;3.80;95.40;;;;;;5074870;28;20209;-84
2023/11/27 02:33:50;;;;;;;27.10;21.50;;;3.80;95.40;;;;;;5093086;28;20521;-87
2023/11/27 02:36:15;;;;;;;31.53;23.07;;;3.80;95.40;;;;;;5093451;28;20194;-84
2023/11/27 02:38:41;;;;;;;27.97;22.30;;;3.80;95.40;;;;;;5093012;28;20568;-84
2023/11/27 02:41:06;;;;;;;24.67;21.23;;;3.80;95.40;;;;;;5093039;28;20213;-84
2023/11/27 02:43:32;;;;;;;27.30;22.50;;;3.90;95.50;;;;;;5093337;28;20179;-84
2023/11/27 02:45:58;;;;;;;29.17;20.17;;;3.90;95.40;;;;;;5093051;28;20178;-84
2023/11/27 02:48:23;;;;;;;26.53;20.40;;;3.90;95.40;;;;;;5076422;28;20233;-84
2023/11/27 02:50:49;;;;;;;25.57;19.83;;;3.90;95.40;;;;;;5097171;28;20261;-84
2023/11/27 02:53:14;;;;;;;29.10;20.93;;;3.90;95.40;;;;;;5097336;28;20244;-84
2023/11/27 02:55:40;;;;;;;24.53;20.43;;;3.90;95.40;;;;;;5097137;28;20174;-84
2023/11/27 02:58:09;;;;;;;25.87;20.97;;;4.00;95.40;;;;;;5078742;28;20251;-84
2023/11/27 03:00:35;;;;;;;29.00;22.03;;;4.00;95.40;;;;;;5078954;28;20653;-84
2023/11/27 03:03:02;;;;;;;36.10;32.47;;;4.00;95.40;;;;;;5096899;28;20185;-84
2023/11/27 03:05:28;;;;;;;34.47;31.03;;;4.00;95.40;;;;;;5096717;28;20201;-84
2023/11/27 03:07:54;;;;;;;36.40;32.93;;;4.00;95.30;;;;;;5096722;28;20205;-84
2023/11/27 03:10:19;;;;;;;35.43;31.80;;;4.10;95.30;;;;;;5096736;28;20175;-84
2023/11/27 03:12:45;;;;;;;35.63;31.73;;;4.00;95.30;;;;;;5096994;28;20198;-84
2023/11/27 03:15:10;;;;;;;35.00;31.47;;;4.00;95.20;;;;;;5078422;28;20545;-84
2023/11/27 03:17:39;;;;;;;34.93;31.17;;;4.00;95.20;;;;;;5096531;28;20190;-84
2023/11/27 03:20:05;;;;;;;35.10;31.37;;;4.00;95.20;;;;;;5097114;28;20677;-84
2023/11/27 03:22:31;;;;;;;32.63;28.90;;;4.00;95.20;;;;;;5096900;28;20326;-84
2023/11/27 03:24:57;;;;;;;34.03;28.73;;;4.00;95.10;;;;;;5096621;28;20661;-84
2023/11/27 03:27:22;;;;;;;32.50;28.83;;;3.90;95.10;;;;;;5096448;28;20189;-85
2023/11/27 03:29:48;;;;;;;30.07;26.83;;;4.00;95.20;;;;;;5078220;28;20204;-84
2023/11/27 03:32:14;;;;;;;27.70;24.73;;;4.00;95.10;;;;;;5096370;28;20289;-84
2023/11/27 03:34:40;;;;;;;30.10;25.20;;;4.00;95.10;;;;;;5096415;28;20667;-84
2023/11/27 03:37:05;;;;;;;29.13;23.40;;;4.00;95.10;;;;;;5078725;28;20190;-84
2023/11/27 03:39:31;;;;;;;25.63;17.97;;;3.90;95.10;;;;;;5096630;28;20242;-84
2023/11/27 03:41:57;;;;;;;24.50;18.77;;;4.00;95.10;;;;;;5096417;28;20182;-84
2023/11/27 03:44:22;;;;;;;24.83;22.23;;;3.90;95.00;;;;;;5096375;28;20220;-84
2023/11/27 03:46:48;;;;;;;26.17;23.30;;;3.90;95.00;;;;;;5096353;28;20170;-84
2023/11/27 03:49:13;;;;;;;27.63;22.40;;;3.90;95.00;;;;;;5095888;28;20588;-84
2023/11/27 03:51:39;;;;;;;22.40;17.20;;;3.90;95.00;;;;;;5077700;28;20181;-84
2023/11/27 03:54:05;;;;;;;24.63;18.13;;;3.90;95.10;;;;;;5077938;28;20569;-84
2023/11/27 03:56:31;;;;;;;31.23;21.70;;;3.90;95.00;;;;;;5096241;28;20166;-84
2023/11/27 03:58:56;;;;;;;32.13;23.97;;;3.80;95.00;;;;;;5095755;28;20189;-84
2023/11/27 04:01:22;;;;;;;30.53;22.80;;;3.80;95.00;;;;;;5096046;28;20527;-83
2023/11/27 04:03:47;;;;;;;24.23;18.20;;;3.80;95.00;;;;;;5096347;28;20633;-84
2023/11/27 04:06:22;;;;;;;26.07;18.63;;;3.80;95.00;;;;;;5077579;28;20649;-84
2023/11/27 04:08:48;;;;;;;26.97;18.13;;;3.80;95.00;;;;;;5095781;28;20285;-84
2023/11/27 04:11:14;;;;;;;25.57;18.73;;;3.80;95.00;;;;;;5095768;28;20209;-84
2023/11/27 04:13:39;;;;;;;29.70;19.93;;;3.80;95.00;;;;;;5095793;28;20201;-84
2023/11/27 04:16:06;;;;;;;29.53;18.67;;;3.80;95.00;;;;;;5077568;28;20204;-84
2023/11/27 04:18:32;;;;;;;28.37;19.10;;;3.80;95.00;;;;;;5095749;28;20629;-84
2023/11/27 04:20:58;;;;;;;26.23;19.03;;;3.80;95.00;;;;;;5077338;28;20165;-84
2023/11/27 04:23:23;;;;;;;27.93;19.00;;;3.80;95.00;;;;;;5095580;28;20171;-84
2023/11/27 04:25:49;;;;;;;27.97;18.73;;;3.80;95.00;;;;;;5096093;28;20183;-84
2023/11/27 04:28:15;;;;;;;28.70;19.83;;;3.80;95.00;;;;;;5077148;28;20693;-84
2023/11/27 04:30:40;;;;;;;24.63;19.10;;;3.80;95.10;;;;;;5095214;28;20249;-84
2023/11/27 04:33:06;;;;;;;27.87;24.53;;;3.80;95.00;;;;;;5095082;28;20300;-85
2023/11/27 04:35:31;;;;;;;29.33;24.47;;;3.80;95.10;;;;;;5077148;28;20260;-84
2023/11/27 04:37:57;;;;;;;30.17;22.43;;;3.80;95.00;;;;;;5094948;28;20198;-84
2023/11/27 04:40:22;;;;;;;34.77;25.93;;;3.70;95.00;;;;;;5095150;28;20685;-84
2023/11/27 04:42:48;;;;;;;32.63;24.60;;;3.80;95.10;;;;;;5076890;28;20181;-84
2023/11/27 04:45:13;;;;;;;31.07;25.40;;;3.80;95.00;;;;;;5095052;28;20260;-84
2023/11/27 04:47:39;;;;;;;33.20;25.07;;;3.70;95.00;;;;;;5095116;28;20221;-85
2023/11/27 04:50:06;;;;;;;34.57;26.30;;;3.70;95.10;;;;;;5094888;28;20251;-84
2023/11/27 04:52:32;;;;;;;30.50;25.20;;;3.70;95.10;;;;;;5094916;28;20692;-84
2023/11/27 04:54:58;;;;;;;29.07;24.13;;;3.70;95.10;;;;;;5076771;28;20177;-84
2023/11/27 04:57:24;;;;;;;31.57;24.13;;;3.70;95.00;;;;;;5094724;28;20669;-84
2023/11/27 04:59:50;;;;;;;28.67;23.10;;;3.60;95.00;;;;;;5095176;28;20175;-84
2023/11/27 05:02:15;;;;;;;31.47;23.93;;;3.70;95.00;;;;;;5094779;28;20185;-84
2023/11/27 05:04:41;;;;;;;28.87;23.20;;;3.60;95.00;;;;;;5095259;28;20173;-84
2023/11/27 05:07:07;;;;;;;28.67;23.33;;;3.50;95.00;;;;;;5094999;28;20209;-84
2023/11/27 05:09:33;;;;;;;24.77;18.83;;;3.50;95.00;;;;;;5076628;28;20188;-84
2023/11/27 05:11:59;;;;;;;24.80;18.13;;;3.60;95.00;;;;;;5093922;28;20195;-84
2023/11/27 05:14:24;;;;;;;26.67;18.57;;;3.50;95.00;;;;;;5094502;28;20197;-84
2023/11/27 05:16:52;;;;;;;25.20;22.20;;;3.50;94.90;;;;;;5094658;28;20175;-84
2023/11/27 05:19:18;;;;;;;28.80;21.73;;;3.50;94.90;;;;;;5094478;28;20636;-84
2023/11/27 05:21:43;;;;;;;26.17;17.60;;;3.40;94.90;;;;;;5094594;28;20667;-84
2023/11/27 05:24:09;;;;;;;23.47;16.83;;;3.40;94.90;;;;;;5094288;28;20170;-84
2023/11/27 05:26:34;;;;;;;23.90;16.93;;;3.30;94.90;;;;;;5094665;28;20493;-84
2023/11/27 05:29:00;;;;;;;23.87;18.03;;;3.30;94.90;;;;;;5094408;28;20192;-84
2023/11/27 05:31:25;;;;;;;26.20;17.73;;;3.30;94.90;;;;;;5075980;28;20272;-84
2023/11/27 05:33:51;;;;;;;21.23;16.07;;;3.30;94.90;;;;;;5094047;28;20194;-84
2023/11/27 05:36:17;;;;;;;21.30;17.00;;;3.30;94.90;;;;;;5076253;28;20182;-84
2023/11/27 05:38:42;;;;;;;25.77;17.67;;;3.30;94.90;;;;;;5075864;28;20204;-84
2023/11/27 05:41:11;;;;;;;22.13;17.07;;;3.30;94.90;;;;;;5075858;28;20196;-85
2023/11/27 05:43:37;;;;;;;22.60;16.50;;;3.30;94.90;;;;;;5094216;28;20180;-84
2023/11/27 05:46:02;;;;;;;25.57;17.00;;;3.20;94.80;;;;;;5093985;28;20175;-84
2023/11/27 05:48:29;;;;;;;24.57;17.63;;;3.30;94.90;;;;;;5093988;28;20214;-84
2023/11/27 05:50:55;;;;;;;22.93;17.10;;;3.30;94.80;;;;;;5094170;28;20590;-84
2023/11/27 05:53:20;;;;;;;26.53;21.27;;;3.30;94.90;;;;;;5075663;28;20207;-85
2023/11/27 05:55:46;;;;;;;22.80;19.83;;;3.30;94.90;;;;;;5093968;28;20550;-85
2023/11/27 05:58:12;;;;;;;22.37;19.57;;;3.20;94.90;;;;;;5094076;28;20200;-85
2023/11/27 06:00:38;;;;;;;23.60;19.97;;;3.20;94.90;;;;;;5075804;28;20287;-84
2023/11/27 06:03:04;;;;;;;23.53;19.23;;;3.20;94.90;;;;;;5094049;28;20263;-84
2023/11/27 06:05:29;;;;;;;21.50;19.17;;;3.20;94.90;;;;;;5093776;28;20172;-84
2023/11/27 06:07:55;;;;;;;24.63;20.07;;;3.20;94.90;;;;;;5093897;28;20672;-87
2023/11/27 06:10:20;;;;;;;20.97;18.87;;;3.20;94.90;;;;;;5093709;28;20176;-84
2023/11/27 06:12:46;;;;;;;22.17;19.30;;;3.10;94.90;;;;;;5093695;28;20207;-84
2023/11/27 06:15:15;;;;;;;22.33;19.47;;;3.20;94.90;;;;;;5075590;28;20186;-85
2023/11/27 06:17:44;;;;;;;22.20;19.80;;;3.10;94.90;;;;;;5075533;28;20229;-85
2023/11/27 06:20:17;;;;;;;19.83;17.73;;;3.20;94.90;;;;;;5093775;28;20177;-85
2023/11/27 06:22:42;;;;;;;25.57;19.90;;;3.10;94.90;;;;;;5092658;28;20158;-84
2023/11/27 06:25:09;;;;;;;23.40;18.03;;;3.10;94.90;;;;;;5093574;28;20181;-84
2023/11/27 06:27:35;;;;;;;20.47;17.40;;;3.10;94.90;;;;;;5075016;28;20289;-84
2023/11/27 06:30:00;;;;;;;15.87;13.53;;;3.20;95.00;;;;;;5093319;28;20596;-84
2023/11/27 06:32:26;;;;;;;17.97;13.60;;;3.20;94.90;;;;;;5093559;28;20233;-85
2023/11/27 06:34:52;;;;;;;18.63;14.63;;;3.20;95.00;;;;;;5075507;28;20179;-84
2023/11/27 06:37:18;;;;;;;20.43;18.27;;;3.20;95.00;;;;;;5093554;28;20197;-84
2023/11/27 06:39:45;;;;;;;18.03;16.23;;;3.20;95.00;;;;;;5093382;28;20171;-84
2023/11/27 06:42:14;;;;;;;15.57;12.50;;;3.20;94.90;;;;;;5093392;28;20170;-84
2023/11/27 06:44:40;;;;;;;17.73;13.27;;;3.20;95.00;;;;;;5075222;28;20179;-84
2023/11/27 06:47:06;;;;;;;18.17;16.37;;;3.20;95.00;;;;;;5093330;28;20367;-84
2023/11/27 06:49:32;;;;;;;17.70;15.90;;;3.20;95.00;;;;;;5093313;28;20226;-85
2023/11/27 06:51:57;;;;;;;18.60;16.70;;;3.20;95.00;;;;;;5093215;28;20235;-84
2023/11/27 06:54:24;;;;;;;16.87;12.80;;;3.20;95.00;;;;;;5093333;28;20177;-84
2023/11/27 06:56:51;;;;;;;14.30;11.73;;;3.20;95.00;;;;;;5093215;28;20173;-85
2023/11/27 06:59:17;;;;;;;13.17;10.30;;;3.20;95.00;;;;;;5075395;28;20186;-84
2023/11/27 07:01:43;;;;;;;11.97;10.07;;;3.20;95.00;;;;;;5075217;28;20178;-84
2023/11/27 07:04:09;;;;;;;13.30;10.10;;;3.20;95.00;;;;;;5075253;28;20186;-84
2023/11/27 07:06:36;;;;;;;13.63;10.57;;;3.20;94.90;;;;;;5093356;28;20176;-86
2023/11/27 07:09:04;;;;;;;13.70;10.37;;;3.20;94.90;;;;;;5075020;28;20194;-84
2023/11/27 07:11:32;;;;;;;11.53;9.73;;;3.20;94.90;;;;;;5093279;28;20570;-85
2023/11/27 07:14:01;;;;;;;13.70;10.90;;;3.20;94.90;;;;;;5093014;28;20309;-84
2023/11/27 07:16:28;;;;;;;13.37;11.40;;;3.20;94.90;;;;;;5074792;28;20603;-85
2023/11/27 07:18:54;;;;;;;17.13;11.57;;;3.10;94.90;;;;;;5074693;28;20283;-84
2023/11/27 07:21:20;;;;;;;13.87;10.53;;;3.10;94.90;;;;;;5093048;28;20208;-84
2023/11/27 07:23:45;;;;;;;13.67;10.87;;;3.10;94.90;;;;;;5092943;28;20246;-85
2023/11/27 07:26:11;;;;;;;18.23;16.43;;;3.20;94.90;;;;;;5093175;28;20643;-85
2023/11/27 07:28:42;;;;;;;17.53;15.73;;;3.20;94.90;;;;;;5093101;28;20200;-84
2023/11/27 07:31:11;;;;;;;17.60;15.60;;;3.20;94.90;;;;;;5093144;28;20182;-84
2023/11/27 07:33:38;;;;;;;18.90;16.90;;;3.20;94.90;;;;;;5093188;28;20281;-84
2023/11/27 07:36:06;;;;;;;18.20;16.40;;;3.20;94.90;;;;;;5078536;28;20174;-84
2023/11/27 07:38:32;;;;;;;18.07;15.77;;;3.10;95.00;;;;;;5096660;28;20278;-84
2023/11/27 07:40:57;;;;;;;16.47;14.87;;;3.20;94.90;;;;;;5096661;28;20202;-84
2023/11/27 07:43:23;;;;;;;18.33;16.43;;;3.10;94.90;;;;;;5096987;28;20181;-84
2023/11/27 07:45:49;;;;;;;17.47;15.60;;;3.10;95.00;;;;;;5096414;28;20179;-84
2023/11/27 07:48:14;;;;;;;16.87;15.17;;;3.10;95.00;;;;;;5096514;28;20725;-84
2023/11/27 07:50:40;;;;;;;16.33;14.77;;;3.10;95.00;;;;;;5097117;28;20217;-86
2023/11/27 07:53:07;;;;;;;17.33;15.60;;;3.10;95.00;;;;;;5096588;28;20198;-85
2023/11/27 07:55:33;;;;;;;17.40;15.47;;;3.10;95.00;;;;;;5096675;28;20175;-86
2023/11/27 07:57:58;;;;;;;16.03;14.53;;;3.10;95.00;;;;;;5078305;28;20198;-84
2023/11/27 08:00:26;;;;;;;11.83;9.80;;;3.20;95.00;;;;;;5096824;28;20176;-84
2023/11/27 08:02:53;;;;;;;12.40;10.00;;;3.10;95.00;;;;;;5096484;28;20170;-84
2023/11/27 08:05:20;;;;;;;12.90;9.80;;;3.10;95.00;;;;;;5096083;28;20223;-84
2023/11/27 08:07:47;;;;;;;15.67;14.27;;;3.20;95.00;;;;;;5078413;28;20256;-84
2023/11/27 08:10:15;;;;;;;16.33;14.73;;;3.10;95.00;;;;;;5096013;28;20262;-85
2023/11/27 08:12:42;;;;;;;19.50;12.47;;;3.10;95.00;;;;;;5096433;28;20205;-87
2023/11/27 08:15:08;;;;;;;13.63;11.33;;;3.10;95.00;;;;;;5096254;28;20169;-86
2023/11/27 08:17:34;;;;;;;12.63;10.80;;;3.10;95.00;;;;;;5095938;28;20189;-84
2023/11/27 08:20:03;;;;;;;15.83;14.20;;;3.10;95.00;;;;;;5096177;28;20678;-87
2023/11/27 08:22:28;;;;;;;16.60;14.90;;;3.10;95.00;;;;;;5096069;28;20167;-85
2023/11/27 08:24:56;;;;;;;11.87;10.60;;;3.10;95.00;;;;;;5077723;28;20561;-84
2023/11/27 08:27:26;;;;;;;12.53;11.23;;;3.10;95.00;;;;;;5095741;28;20667;-84
2023/11/27 08:29:52;;;;;;;13.10;10.77;;;3.10;95.00;;;;;;5077540;28;20183;-84
2023/11/27 08:32:17;;;;;;;12.43;11.13;;;3.10;95.00;;;;;;5095879;28;20196;-84
2023/11/27 08:34:43;;;;;;;13.87;11.60;;;3.10;95.00;;;;;;5095676;28;20163;-85
2023/11/27 08:37:09;;;;;;;12.17;10.60;;;3.00;95.00;;;;;;5095885;28;20279;-84
2023/11/27 08:39:35;;;;;;;12.00;10.63;;;3.10;95.10;;;;;;5077300;28;20175;-85
2023/11/27 08:42:01;;;;;;;11.77;9.60;;;3.10;95.10;;;;;;5095756;28;20653;-85
2023/11/27 08:44:26;;;;;;;11.50;10.30;;;3.00;95.00;;;;;;5095775;28;20239;-84
2023/11/27 08:46:52;;;;;;;10.40;9.40;;;3.00;95.00;;;;;;5094225;28;20177;-85
2023/11/27 08:49:17;;;;;;;11.13;10.03;;;3.10;95.10;;;;;;5076950;28;20196;-84
2023/11/27 08:51:44;;;;;;;10.90;9.80;;;3.10;95.10;;;;;;5095385;28;20185;-84
2023/11/27 08:54:10;;;;;;;11.23;10.13;;;3.10;95.10;;;;;;5095335;28;20168;-84
2023/11/27 08:56:40;;;;;;;14.47;13.17;;;3.10;95.10;;;;;;5096004;28;20190;-84
2023/11/27 08:59:06;;;;;;;15.33;13.93;;;3.10;95.10;;;;;;5077326;28;20282;-85
2023/11/27 09:01:31;;;;;;;15.07;13.60;;;3.10;95.10;;;;;;5095312;28;20174;-84
2023/11/27 09:03:57;;;;;;;14.70;13.30;;;3.10;95.10;;;;;;5077156;28;20189;-84
2023/11/27 09:06:23;;;;;;;15.90;14.37;;;3.10;95.10;;;;;;5095176;28;20214;-85
2023/11/27 09:08:48;;;;;;;14.93;13.53;;;3.20;95.10;;;;;;5095312;28;20648;-85
2023/11/27 09:11:14;;;;;;;13.67;12.47;;;3.20;95.10;;;;;;5076722;28;20175;-86
2023/11/27 09:13:40;;;;;;;14.90;13.50;;;3.20;95.10;;;;;;5077358;28;20571;-85
2023/11/27 09:16:06;;;;;;;14.93;13.57;;;3.20;95.10;;;;;;5095129;28;20254;-90
2023/11/27 09:18:32;;;;;;;12.97;11.90;;;3.20;95.10;;;;;;5076586;28;20187;-89
2023/11/27 09:20:58;;;;;;;12.83;11.73;;;3.20;95.20;;;;;;5094697;28;20169;-90
2023/11/27 09:23:24;;;;;;;13.27;11.90;;;3.20;95.10;;;;;;5094653;28;20194;-89
2023/11/27 09:25:49;;;;;;;14.53;13.27;;;3.20;95.10;;;;;;5076296;28;20172;-89
2023/11/27 09:28:15;;;;;;;14.43;13.13;;;3.30;95.10;;;;;;5076052;28;20223;-89
2023/11/27 09:30:40;;;;;;;13.07;11.87;;;3.30;95.10;;;;;;5076296;28;20202;-89
2023/11/27 09:33:06;;;;;;;10.47;9.33;;;3.20;95.10;;;;;;5076136;28;20261;-89
2023/11/27 09:35:31;;;;;;;11.57;10.27;;;3.20;95.10;;;;;;5094581;28;20175;-90
2023/11/27 09:37:57;;;;;;;13.33;12.13;;;3.20;95.10;;;;;;5076007;28;20221;-89
2023/11/27 09:40:23;;;;;;;12.00;11.00;;;3.20;95.10;;;;;;5076077;28;20187;-89
2023/11/27 09:42:48;;;;;;;13.87;12.67;;;3.20;95.10;;;;;;5076199;28;20184;-90
2023/11/27 09:45:18;;;;;;;10.27;8.83;;;3.20;95.10;;;;;;5094278;28;20210;-90
2023/11/27 09:47:49;;;;;;;10.17;8.97;;;3.20;95.10;;;;;;5076266;28;20206;-89
2023/11/27 09:50:16;;;;;;;9.90;8.90;;;3.20;95.10;;;;;;5076067;28;20201;-89
2023/11/27 09:52:59;;;;;;;10.70;9.27;;;3.20;95.10;;;;;;5076061;28;20219;-89
2023/11/27 09:55:31;;;;;;;9.20;8.30;;;3.20;95.00;;;;;;5094462;28;20162;-89
2023/11/27 09:57:58;;;;;;;10.00;9.00;;;3.20;95.00;;;;;;5075633;28;20223;-89
2023/11/27 10:00:25;;;;;;;9.47;8.67;;;3.20;95.00;;;;;;5075712;28;20632;-89
2023/11/27 10:02:51;;;;;;;9.27;8.33;;;3.20;95.00;;;;;;5075693;28;20202;-90
2023/11/27 10:05:18;;;;;;;9.30;8.40;;;3.10;95.00;;;;;;5075630;28;20178;-90
2023/11/27 10:07:49;;;;;;;8.73;7.93;;;3.20;95.00;;;;;;5075846;28;20245;-89
2023/11/27 10:10:24;;;;;;;9.03;8.13;;;3.20;95.00;;;;;;5075745;28;20172;-89
2023/11/27 10:12:49;;;;;;;8.97;8.07;;;3.20;95.00;;;;;;5077021;28;20273;-89
2023/11/27 10:15:16;;;;;;;11.40;10.47;;;3.10;94.90;;;;;;5094370;28;20208;-89
2023/11/27 10:17:43;;;;;;;11.40;10.40;;;3.10;94.90;;;;;;5075575;28;20207;-88
2023/11/27 10:20:12;;;;;;;11.10;10.10;;;3.00;94.90;;;;;;5076760;28;20171;-90
2023/11/27 10:22:44;;;;;;;18.10;16.50;;;3.10;94.80;;;;;;5075760;28;20574;-91
2023/11/27 10:25:13;;;;;;;11.63;10.63;;;3.00;94.80;;;;;;5076343;28;20240;-89
2023/11/27 10:27:41;;;;;;;9.80;9.00;;;2.90;94.80;;;;;;5075467;28;20222;-89
2023/11/27 10:30:18;;;;;;;10.63;9.83;;;2.90;94.70;;;;;;5075409;28;20184;-89
2023/11/27 10:32:45;;;;;;;10.80;9.90;;;2.90;94.70;;;;;;5075551;28;20199;-89
2023/11/27 10:35:12;;;;;;;10.37;9.20;;;2.80;94.70;;;;;;5075575;28;20185;-90
2023/11/27 10:37:38;;;;;;;9.50;8.70;;;2.80;94.70;;;;;;5075542;28;20305;-90
2023/11/27 10:40:13;;;;;;;9.27;8.57;;;2.80;94.70;;;;;;5075541;28;20167;-90
2023/11/27 10:42:39;;;;;;;9.73;8.97;;;2.70;94.60;;;;;;5077973;28;20170;-90
2023/11/27 10:45:08;;;;;;;9.47;8.47;;;2.70;94.60;;;;;;5079035;28;20177;-90
2023/11/27 10:47:34;;;;;;;9.50;8.70;;;2.60;94.50;;;;;;5077205;28;20195;-90
2023/11/27 10:50:02;;;;;;;10.67;9.73;;;2.50;94.50;;;;;;5076696;28;20200;-89
2023/11/27 10:52:28;;;;;;;6.43;5.83;;;2.50;94.60;;;;;;5075574;28;20225;-89
2023/11/27 10:54:57;;;;;;;6.37;5.77;;;2.40;94.60;;;;;;5078339;28;20195;-89
2023/11/27 10:57:27;;;;;;;8.90;8.10;;;2.30;94.50;;;;;;5074935;28;20187;-88
2023/11/27 10:59:52;;;;;;;10.07;9.17;;;2.30;94.60;;;;;;5075217;28;20167;-89
2023/11/27 11:02:21;;;;;;;10.10;9.30;;;2.30;94.60;;;;;;5074998;28;20185;-88
2023/11/27 11:04:50;;;;;;;5.20;4.80;;;2.30;94.60;;;;;;5077026;28;20261;-91
2023/11/27 11:07:28;;;;;;;5.30;4.80;;;2.30;94.70;;;;;;5075564;28;20281;-87
2023/11/27 11:09:55;;;;;;;8.87;8.17;;;2.30;94.70;;;;;;5095577;28;20154;-88
2023/11/27 11:12:23;;;;;;;10.23;9.33;;;2.30;94.70;;;;;;5097002;28;20201;-86
2023/11/27 11:14:52;;;;;;;8.53;7.83;;;2.30;94.80;;;;;;5081751;28;20228;-89
2023/11/27 11:17:25;;;;;;;5.67;5.07;;;2.30;94.70;;;;;;5078792;28;20187;-90
2023/11/27 11:20:28;;;;;;;5.33;4.83;;;2.30;94.70;;;;;;5078773;28;20228;-88
2023/11/27 11:23:14;;;;;;;5.77;5.10;;;2.20;94.70;;;;;;5079061;28;20232;-88
2023/11/27 11:26:24;;;;;;;5.87;4.80;;;2.20;94.70;;;;;;5097121;28;20175;-89
2023/11/27 11:29:24;;;;;;;5.40;4.93;;;2.10;94.70;;;;;;5078484;28;20194;-89
2023/11/27 11:32:09;;;;;;;5.53;4.30;;;2.10;94.60;;;;;;5075040;28;20558;-89
2023/11/27 11:34:42;;;;;;;5.17;4.77;;;2.10;94.70;;;;;;5078369;28;20167;-90
2023/11/27 11:37:11;;;;;;;7.07;5.17;;;2.10;94.60;;;;;;5079128;28;20190;-90
2023/11/27 11:39:40;;;;;;;6.20;4.93;;;2.00;94.70;;;;;;5078508;28;20175;-90
2023/11/27 11:42:13;;;;;;;6.10;5.33;;;2.00;94.70;;;;;;5079367;28;20204;-89
2023/11/27 11:44:39;;;;;;;6.53;5.73;;;2.00;94.70;;;;;;5097082;28;20155;-88
2023/11/27 11:47:28;;;;;;;9.33;8.57;;;2.00;94.70;;;;;;5081392;28;20661;-89
2023/11/27 11:50:25;;;;;;;7.90;7.30;;;2.00;94.70;;;;;;5078179;28;20289;-88
2023/11/27 11:53:12;;;;;;;9.20;8.30;;;2.00;94.80;;;;;;5079259;28;20204;-88
2023/11/27 11:55:39;;;;;;;9.33;8.43;;;1.90;94.70;;;;;;5078794;28;20173;-90
2023/11/27 11:58:17;;;;;;;9.90;8.97;;;2.00;94.70;;;;;;5077834;28;20273;-91
2023/11/27 12:00:43;;;;;;;9.50;8.70;;;2.00;94.80;;;;;;5077976;28;20196;-91
2023/11/27 12:03:15;;;;;;;8.77;7.87;;;2.00;94.80;;;;;;5077745;28;20186;-91
2023/11/27 12:05:50;;;;;;;8.93;8.10;;;2.00;94.80;;;;;;5078314;28;20167;-92
2023/11/27 12:08:20;;;;;;;9.00;8.20;;;2.10;94.80;;;;;;5077984;28;20190;-89
2023/11/27 12:10:48;;;;;;;9.73;8.90;;;2.10;94.70;;;;;;5077679;28;20170;-91
2023/11/27 12:13:15;;;;;;;8.57;7.87;;;2.10;94.80;;;;;;5095873;28;20227;-91
2023/11/27 12:15:41;;;;;;;10.27;9.37;;;2.10;94.70;;;;;;5077731;28;20175;-90
2023/11/27 12:18:12;;;;;;;9.60;8.70;;;2.10;94.70;;;;;;5078266;28;20217;-92
2023/11/27 12:20:42;;;;;;;6.53;5.93;;;2.10;94.70;;;;;;5077572;28;20163;-91
2023/11/27 12:23:12;;;;;;;6.00;5.50;;;2.10;94.70;;;;;;5078126;28;20179;-91
2023/11/27 12:25:41;;;;;;;8.80;7.97;;;2.10;94.70;;;;;;5096686;28;20646;-91
2023/11/27 12:28:11;;;;;;;10.03;9.03;;;2.10;94.70;;;;;;5077246;28;20693;-91
2023/11/27 12:30:38;;;;;;;9.30;8.43;;;2.10;94.70;;;;;;5077335;28;20175;-90
2023/11/27 12:33:04;;;;;;;6.07;5.50;;;2.10;94.70;;;;;;5077123;28;20202;-90
2023/11/27 12:35:34;;;;;;;6.00;5.47;;;2.10;94.70;;;;;;5077327;28;20666;-92
2023/11/27 12:38:07;;;;;;;8.60;7.80;;;2.10;94.70;;;;;;5077068;28;20329;-90
2023/11/27 12:40:35;;;;;;;9.30;8.40;;;2.10;94.60;;;;;;5077311;28;20169;-91